Terminal Aerodrome Forecast
Issued by NWS

Current Version | Previous Version | Text Only | Print | Product List | Glossary Off
Versions: 1 2 3 4 5 6 7 8 9 10 11 12 13 14 15 16 17

000
FTUS41 KILN 242300
TAFLCK
TAF
KLCK 242332Z 2500/2524 23011KT P6SM BKN080
     FM250300 23011KT P6SM VCSH OVC040
      TEMPO 2504/2507 BKN025
     FM250900 26006KT P6SM SCT250
     FM251500 VRB02KT P6SM BKN250
     FM252000 03004KT P6SM BKN250=

USA.gov is the U.S. government's official web portal to all federal, state and local government web resources and services.